Time;durP1;ratioP1;P1;durP2;ratioP2;P2;SDS_P1;SDS_P2;PMS_P1;PMS_P2;Temp;Humidity;BMP_temperature;BMP_pressure;BME280_temperature;BME280_humidity;BME280_pressure;Samples;Min_cycle;Max_cycle;Signal;HPM_P1;HPM_P2
2023/02/16 00:00:29;;;;;;;3.40;3.10;;;;;;;19.98;35.30;102259.34;5023449;28;20041;-83
2023/02/16 00:02:55;;;;;;;3.30;3.00;;;;;;;19.87;35.51;102267.44;5015611;28;20045;-83
2023/02/16 00:05:32;;;;;;;3.35;3.05;;;;;;;19.91;35.48;102271.44;5024827;28;20084;-83
2023/02/16 00:07:59;;;;;;;3.10;2.90;;;;;;;19.88;35.42;102272.56;5022042;28;20052;-83
2023/02/16 00:10:30;;;;;;;3.13;2.85;;;;;;;19.96;35.27;102279.78;5019244;28;20065;-83
2023/02/16 00:15:40;;;;;;;3.22;2.92;;;;;;;19.94;35.31;102273.00;5023266;28;20068;-83
2023/02/16 00:18:15;;;;;;;3.08;2.88;;;;;;;19.94;35.26;102271.19;5018652;28;20060;-80
2023/02/16 00:20:41;;;;;;;3.60;3.30;;;;;;;19.96;35.16;102268.41;5018888;28;20045;-80
2023/02/16 00:23:06;;;;;;;3.40;3.10;;;;;;;19.92;35.39;102268.66;5024977;28;20057;-81
2023/02/16 00:25:32;;;;;;;3.47;3.17;;;;;;;19.94;35.33;102273.81;5020826;28;20054;-80
2023/02/16 00:27:58;;;;;;;3.15;2.80;;;;;;;19.81;35.54;102273.31;5031072;28;20065;-81
2023/02/16 00:30:23;;;;;;;3.35;3.10;;;;;;;19.91;35.39;102277.56;5026498;28;20037;-81
2023/02/16 00:32:49;;;;;;;3.53;3.22;;;;;;;19.84;35.40;102268.56;5023665;28;20037;-80
2023/02/16 00:35:20;;;;;;;3.22;2.92;;;;;;;19.90;35.33;102269.78;5027594;28;20044;-81
2023/02/16 00:37:46;;;;;;;3.40;3.10;;;;;;;19.87;35.31;102265.63;5025647;28;20049;-82
2023/02/16 00:40:14;;;;;;;3.15;2.95;;;;;;;19.94;35.35;102265.06;5027221;28;20041;-82
2023/02/16 00:42:41;;;;;;;3.60;3.30;;;;;;;19.84;35.40;102263.28;5016715;28;20139;-82
2023/02/16 00:45:15;;;;;;;3.10;2.80;;;;;;;19.88;35.32;102258.53;5028444;28;20095;-81
2023/02/16 00:47:45;;;;;;;3.47;3.17;;;;;;;19.87;35.31;102257.69;5015511;28;20047;-81
2023/02/16 00:50:15;;;;;;;;;;;;;;;19.79;35.43;102256.78;5028919;28;20788;-82
2023/02/16 00:52:44;;;;;;;3.40;3.10;;;;;;;19.86;35.39;102265.78;5032549;28;19924;-81
2023/02/16 00:55:13;;;;;;;3.30;3.00;;;;;;;19.84;35.41;102260.63;5017179;28;20701;-82
2023/02/16 00:57:45;;;;;;;3.33;3.03;;;;;;;19.96;35.05;102263.09;5020650;28;20042;-81
2023/02/16 01:00:25;;;;;;;3.03;2.83;;;;;;;19.88;34.92;102262.00;5019767;28;21706;-82
2023/02/16 01:02:55;;;;;;;3.58;3.28;;;;;;;20.00;34.97;102264.47;5022699;28;20056;-81
2023/02/16 01:05:21;;;;;;;3.00;2.80;;;;;;;19.96;35.10;102268.41;5020288;28;20071;-81
2023/02/16 01:13:17;;;;;;;3.05;2.83;;;;;;;19.75;35.27;102260.66;5023479;28;20033;-81
2023/02/16 01:15:43;;;;;;;3.15;2.90;;;;;;;19.86;35.25;102256.03;5031913;28;20542;-81
2023/02/16 01:18:12;;;;;;;3.13;2.92;;;;;;;19.67;35.60;102252.63;5021639;28;20049;-81
2023/02/16 01:20:38;;;;;;;3.25;2.95;;;;;;;19.82;35.24;102253.84;5020198;28;20475;-81
2023/02/16 01:23:06;;;;;;;3.10;2.85;;;;;;;19.94;34.97;102252.69;5022301;28;20041;-81
2023/02/16 01:25:31;;;;;;;3.20;2.90;;;;;;;19.87;35.08;102239.19;5015385;28;20053;-83
2023/02/16 01:27:57;;;;;;;3.40;3.10;;;;;;;19.89;35.05;102246.97;4986275;28;20041;-82
2023/02/16 01:30:24;;;;;;;3.03;2.80;;;;;;;19.94;34.85;102254.50;5024147;28;20048;-82
2023/02/16 01:32:51;;;;;;;3.10;2.80;;;;;;;19.84;35.00;102250.06;5007417;28;20038;-82
2023/02/16 01:35:22;;;;;;;3.50;3.20;;;;;;;19.79;35.15;102244.38;5024712;28;20025;-82
2023/02/16 01:37:48;;;;;;;3.13;2.83;;;;;;;19.79;35.17;102248.84;5016198;28;20057;-82
2023/02/16 01:40:34;;;;;;;3.42;3.13;;;;;;;19.85;35.08;102248.25;5027857;28;21229;-82
2023/02/16 01:43:19;;;;;;;3.30;3.00;;;;;;;19.84;35.06;102244.78;5025769;28;20033;-83
2023/02/16 01:46:02;;;;;;;3.50;3.20;;;;;;;19.76;35.28;102247.31;5024835;28;20577;-83
2023/02/16 01:48:30;;;;;;;3.38;3.08;;;;;;;19.87;34.97;102238.34;5019940;28;20044;-83
2023/02/16 01:51:22;;;;;;;3.13;2.83;;;;;;;19.90;34.89;102238.06;5020926;28;20132;-83
2023/02/16 01:53:51;;;;;;;3.20;2.90;;;;;;;19.66;35.25;102228.00;5015931;28;20033;-82
2023/02/16 01:56:34;;;;;;;3.45;3.15;;;;;;;19.85;35.03;102221.81;5017457;28;20037;-81
2023/02/16 01:59:08;;;;;;;3.40;3.10;;;;;;;19.82;35.09;102224.75;5022492;28;20049;-82
2023/02/16 02:02:03;;;;;;;3.38;3.08;;;;;;;19.70;35.24;102221.44;4994037;28;20033;-81
2023/02/16 02:07:30;;;;;;;3.28;2.97;;;;;;;19.74;35.23;102219.34;5016968;28;20042;-82
2023/02/16 02:10:24;;;;;;;3.83;3.53;;;;;;;19.71;35.16;102215.19;5020679;28;20076;-82
2023/02/16 02:13:03;;;;;;;3.20;3.00;;;;;;;19.67;35.17;102210.34;5015736;28;20050;-82
2023/02/16 02:15:31;;;;;;;3.63;3.33;;;;;;;19.80;35.03;102210.84;5024050;28;20032;-81
2023/02/16 02:17:57;;;;;;;3.30;3.00;;;;;;;19.74;35.14;102206.13;5013955;28;20040;-82
2023/02/16 02:23:43;;;;;;;3.28;2.97;;;;;;;19.67;35.25;102210.34;5018524;28;20108;-82
2023/02/16 02:26:34;;;;;;;3.70;3.30;;;;;;;19.57;35.39;102200.66;5000679;28;20587;-82
2023/02/16 02:29:39;;;;;;;3.70;3.40;;;;;;;19.63;35.35;102207.16;5022138;28;20450;-82
2023/02/16 02:32:10;;;;;;;3.72;3.42;;;;;;;19.64;35.17;102200.91;5022383;28;20037;-81
2023/02/16 02:34:57;;;;;;;3.42;3.13;;;;;;;19.72;34.99;102203.63;5022231;28;20055;-81
2023/02/16 02:37:25;;;;;;;3.70;3.40;;;;;;;19.70;35.09;102202.94;5003152;28;20048;-81
2023/02/16 02:40:13;;;;;;;3.33;3.08;;;;;;;19.66;35.16;102201.59;5018197;28;20037;-81
2023/02/16 02:42:42;;;;;;;3.33;3.03;;;;;;;19.74;35.01;102198.19;5021644;28;20041;-81
2023/02/16 02:45:17;;;;;;;3.38;3.08;;;;;;;19.60;35.37;102200.38;5004369;28;20046;-81
2023/02/16 02:47:46;;;;;;;3.45;3.15;;;;;;;19.69;35.04;102198.66;5020856;28;20041;-81
2023/02/16 02:50:37;;;;;;;3.35;3.05;;;;;;;19.59;35.23;102190.78;5022568;28;20065;-82
2023/02/16 02:53:12;;;;;;;3.55;3.25;;;;;;;19.63;35.05;102172.81;5039244;28;20480;-81
2023/02/16 03:01:20;;;;;;;3.80;3.50;;;;;;;19.51;35.31;102172.13;5019048;28;20045;-82
2023/02/16 03:03:51;;;;;;;3.58;3.28;;;;;;;19.50;35.36;102172.28;5019152;28;20030;-82
2023/02/16 03:06:22;;;;;;;3.65;3.35;;;;;;;19.50;35.35;102180.19;5022166;28;20040;-82
2023/02/16 03:08:54;;;;;;;3.72;3.42;;;;;;;19.51;35.36;102177.41;5019131;28;20057;-82
2023/02/16 03:14:38;;;;;;;3.45;3.15;;;;;;;19.60;35.13;102181.88;4979929;28;20141;-82
2023/02/16 03:31:05;;;;;;;3.45;3.15;;;;;;;19.56;35.24;102154.03;4981001;28;20058;-82
2023/02/16 03:33:31;;;;;;;3.55;3.25;;;;;;;19.55;35.13;102149.75;5014771;28;20075;-81
2023/02/16 03:35:57;;;;;;;3.40;3.10;;;;;;;19.55;35.06;102155.03;5020577;28;20057;-81
2023/02/16 03:38:23;;;;;;;3.53;3.22;;;;;;;19.51;35.21;102148.34;5021819;28;20048;-82
2023/02/16 03:40:50;;;;;;;3.50;3.20;;;;;;;19.49;35.20;102150.31;5023412;28;20037;-82
2023/02/16 03:43:16;;;;;;;3.60;3.30;;;;;;;19.45;35.35;102148.09;5026190;28;20045;-81
2023/02/16 03:45:43;;;;;;;3.65;3.35;;;;;;;19.38;35.41;102147.84;5020863;28;20042;-81
2023/02/16 03:48:09;;;;;;;3.85;3.55;;;;;;;19.46;35.31;102153.25;5027201;28;20050;-81
2023/02/16 03:50:35;;;;;;;3.58;3.28;;;;;;;19.48;35.29;102151.28;5022112;28;20033;-82
2023/02/16 03:53:07;;;;;;;3.67;3.38;;;;;;;19.41;35.34;102154.66;5019932;28;20038;-82
2023/02/16 03:55:38;;;;;;;3.78;3.42;;;;;;;19.53;35.15;102161.41;5016562;28;20269;-83
2023/02/16 03:58:05;;;;;;;3.58;3.28;;;;;;;19.43;35.16;102155.34;5009473;28;20467;-82
2023/02/16 04:00:31;;;;;;;3.35;3.10;;;;;;;19.43;35.32;102158.81;5021895;28;20450;-81
2023/02/16 04:02:56;;;;;;;3.97;3.67;;;;;;;19.44;35.16;102151.72;5023469;28;20121;-81
2023/02/16 04:05:22;;;;;;;3.60;3.30;;;;;;;19.41;35.23;102142.28;5028970;28;20041;-81
2023/02/16 04:07:47;;;;;;;3.40;3.10;;;;;;;19.48;35.03;102134.59;5027535;28;20438;-81
2023/02/16 04:10:13;;;;;;;3.50;3.20;;;;;;;19.44;35.36;102139.34;5015643;28;20078;-81
2023/02/16 04:12:38;;;;;;;3.63;3.33;;;;;;;19.48;35.13;102143.34;5028208;28;20447;-82
2023/02/16 04:15:10;;;;;;;3.63;3.33;;;;;;;19.50;35.08;102149.31;5025832;28;20053;-81
2023/02/16 04:17:36;;;;;;;3.53;3.22;;;;;;;19.48;34.99;102140.72;5019111;28;20476;-81
2023/02/16 04:20:02;;;;;;;3.50;3.20;;;;;;;19.41;35.09;102137.00;5014671;28;20138;-82
2023/02/16 04:22:27;;;;;;;3.47;3.17;;;;;;;19.42;35.39;102143.13;5020386;28;20037;-81
2023/02/16 04:24:53;;;;;;;3.53;3.22;;;;;;;19.37;35.25;102142.69;5027250;28;20068;-80
2023/02/16 04:27:19;;;;;;;3.72;3.42;;;;;;;19.35;35.40;102142.84;5023813;28;20088;-80
2023/02/16 04:29:44;;;;;;;3.35;3.05;;;;;;;19.29;35.65;102141.63;5014325;28;20435;-80
2023/02/16 04:32:10;;;;;;;3.92;3.60;;;;;;;19.40;35.25;102139.78;5017450;28;20478;-80
2023/02/16 04:34:35;;;;;;;3.20;2.90;;;;;;;19.40;35.42;102135.34;5009067;28;20038;-81
2023/02/16 04:37:01;;;;;;;3.40;3.10;;;;;;;19.46;35.17;102139.19;5016670;28;20060;-81
2023/02/16 04:39:27;;;;;;;3.28;3.00;;;;;;;19.32;35.44;102143.13;5022374;28;20072;-81
2023/02/16 04:41:52;;;;;;;3.38;3.08;;;;;;;19.25;35.52;102134.13;5023528;28;20076;-81
2023/02/16 04:44:18;;;;;;;3.72;3.42;;;;;;;19.41;35.33;102144.09;5017086;28;20037;-80
2023/02/16 04:46:43;;;;;;;3.58;3.28;;;;;;;19.30;35.50;102130.09;5021282;28;20042;-80
2023/02/16 04:49:09;;;;;;;3.60;3.30;;;;;;;19.36;35.39;102138.41;5020108;28;20049;-80
2023/02/16 04:51:35;;;;;;;3.72;3.42;;;;;;;19.39;35.31;102135.44;5017901;28;20045;-81
2023/02/16 04:54:00;;;;;;;3.50;3.20;;;;;;;19.31;35.45;102126.47;5015665;28;20075;-80
2023/02/16 04:56:27;;;;;;;3.55;3.25;;;;;;;19.38;35.40;102144.34;5019203;28;20104;-80
2023/02/16 04:58:55;;;;;;;3.35;3.05;;;;;;;19.28;35.51;102137.31;5019893;28;20043;-81
2023/02/16 05:01:24;;;;;;;3.10;2.90;;;;;;;19.36;35.41;102152.44;5017198;28;20041;-81
2023/02/16 05:03:50;;;;;;;3.25;3.00;;;;;;;19.35;35.29;102148.13;5020383;28;20033;-80
2023/02/16 05:06:16;;;;;;;3.30;3.00;;;;;;;19.39;35.39;102143.38;5015842;28;20049;-81
2023/02/16 05:08:42;;;;;;;3.50;3.20;;;;;;;19.50;35.11;102141.41;5020193;28;20064;-81
2023/02/16 05:16:36;;;;;;;3.17;2.88;;;;;;;19.49;35.29;102128.34;5016718;28;20630;-80
2023/02/16 05:19:02;;;;;;;3.28;2.97;;;;;;;19.50;35.34;102130.00;5020211;28;20052;-81
2023/02/16 05:21:30;;;;;;;3.40;3.03;;;;;;;19.48;35.28;102127.50;5020690;28;20061;-80
2023/02/16 05:24:01;;;;;;;3.35;3.05;;;;;;;19.43;35.36;102119.19;5025023;28;20033;-80
2023/02/16 05:26:27;;;;;;;3.28;3.05;;;;;;;19.48;35.18;102121.38;5022440;28;20045;-81
2023/02/16 05:28:53;;;;;;;3.30;3.00;;;;;;;19.52;35.16;102120.13;5016845;28;20029;-80
2023/02/16 05:31:19;;;;;;;3.38;3.08;;;;;;;19.46;35.31;102129.47;5016730;28;20049;-81
2023/02/16 05:33:44;;;;;;;3.53;3.22;;;;;;;19.54;35.23;102141.97;5028639;28;20057;-80
2023/02/16 05:36:10;;;;;;;3.03;2.83;;;;;;;19.50;35.15;102130.84;5015181;28;20099;-81
2023/02/16 05:38:35;;;;;;;3.00;2.75;;;;;;;19.47;35.52;102143.50;5024299;28;20330;-80
2023/02/16 05:41:01;;;;;;;3.40;3.10;;;;;;;19.44;35.42;102138.53;5020606;28;20048;-80
2023/02/16 05:43:26;;;;;;;3.28;3.03;;;;;;;19.45;35.43;102134.91;5002308;28;20050;-80
2023/02/16 05:45:52;;;;;;;2.90;2.70;;;;;;;19.59;35.13;102134.44;5021247;28;20044;-80
2023/02/16 05:48:17;;;;;;;3.05;2.80;;;;;;;19.56;35.15;102138.19;5021799;28;20045;-81
2023/02/16 05:50:43;;;;;;;3.30;3.00;;;;;;;19.53;35.18;102129.69;5024200;28;20411;-81
2023/02/16 05:53:09;;;;;;;3.33;3.03;;;;;;;19.45;35.38;102133.09;5014881;28;20088;-81
2023/02/16 05:55:34;;;;;;;3.25;2.97;;;;;;;19.54;35.31;102140.16;5017759;28;20039;-81
2023/02/16 05:57:59;;;;;;;3.30;3.00;;;;;;;19.50;35.25;102136.13;5017474;28;20042;-81
2023/02/16 06:00:25;;;;;;;3.42;3.13;;;;;;;19.56;35.20;102130.25;5018382;28;20068;-81
2023/02/16 06:02:51;;;;;;;3.20;2.90;;;;;;;19.64;35.03;102131.38;5016993;28;20049;-81
2023/02/16 06:05:16;;;;;;;3.00;2.80;;;;;;;19.58;35.00;102138.06;5024838;28;20099;-81
2023/02/16 06:07:42;;;;;;;3.58;3.28;;;;;;;19.59;35.18;102134.44;5023809;28;20042;-81
2023/02/16 06:10:08;;;;;;;3.28;2.97;;;;;;;19.44;35.49;102112.94;5022501;28;20050;-81
2023/02/16 06:12:34;;;;;;;3.15;2.90;;;;;;;19.53;35.33;102119.13;5014169;28;20534;-81
2023/02/16 06:15:00;;;;;;;3.30;3.03;;;;;;;19.43;35.43;102121.00;5021046;28;20053;-81
2023/02/16 06:17:27;;;;;;;3.28;2.97;;;;;;;19.45;35.47;102126.97;5012623;28;20145;-80
2023/02/16 06:19:52;;;;;;;2.97;2.78;;;;;;;19.53;35.21;102127.06;5018477;28;20025;-80
2023/02/16 06:22:18;;;;;;;3.15;2.95;;;;;;;19.43;35.61;102119.19;5021547;28;20200;-80
2023/02/16 06:24:44;;;;;;;3.47;3.17;;;;;;;19.41;35.52;102123.78;5016886;28;20034;-81
2023/02/16 06:27:09;;;;;;;3.05;2.85;;;;;;;19.51;35.28;102135.13;5028134;28;20045;-80
2023/02/16 06:29:34;;;;;;;3.28;2.97;;;;;;;19.46;35.41;102133.91;5018159;28;20036;-81
2023/02/16 06:32:00;;;;;;;3.30;3.00;;;;;;;19.50;35.23;102130.84;5017665;28;20069;-80
2023/02/16 06:34:25;;;;;;;3.25;2.95;;;;;;;19.55;35.25;102122.50;5015402;28;20427;-80
2023/02/16 06:36:51;;;;;;;3.30;3.00;;;;;;;19.44;35.38;102125.31;5021505;28;20124;-80
2023/02/16 06:39:17;;;;;;;3.50;3.20;;;;;;;19.45;35.21;102125.16;5018927;28;20503;-81
2023/02/16 06:41:42;;;;;;;3.63;3.28;;;;;;;19.49;35.17;102131.81;5021532;28;20051;-81
2023/02/16 06:44:14;;;;;;;3.50;3.20;;;;;;;19.43;35.39;102134.22;5021892;28;20041;-80
2023/02/16 06:46:44;;;;;;;3.28;3.00;;;;;;;19.48;35.25;102140.72;5015158;28;20050;-80
2023/02/16 06:49:16;;;;;;;3.15;2.92;;;;;;;19.42;35.24;102132.56;5024163;28;20045;-80
2023/02/16 06:51:42;;;;;;;3.15;2.95;;;;;;;19.48;35.38;102129.31;5021482;28;20033;-80
2023/02/16 06:54:08;;;;;;;3.35;3.05;;;;;;;19.51;35.13;102131.66;5026080;28;20124;-80
2023/02/16 06:56:33;;;;;;;3.28;2.97;;;;;;;19.42;35.36;102136.03;5021071;28;20129;-80
2023/02/16 06:58:59;;;;;;;3.33;3.03;;;;;;;19.28;35.60;102128.56;4992240;28;20460;-80
2023/02/16 07:01:24;;;;;;;3.35;3.05;;;;;;;19.36;35.55;102131.28;5021553;28;20049;-80
2023/02/16 07:03:54;;;;;;;3.30;3.00;;;;;;;19.43;35.36;102135.03;5017229;28;20053;-79
2023/02/16 07:06:20;;;;;;;3.53;3.22;;;;;;;19.40;35.30;102137.16;5021057;28;20034;-79
2023/02/16 07:08:46;;;;;;;3.60;3.30;;;;;;;19.30;35.57;102129.25;5024134;28;20029;-79
2023/02/16 07:11:13;;;;;;;3.40;3.10;;;;;;;19.39;35.48;102127.53;5022904;28;20064;-79
2023/02/16 07:13:38;;;;;;;3.15;2.95;;;;;;;19.41;35.47;102138.81;5028658;28;20613;-79
2023/02/16 07:16:05;;;;;;;3.30;3.00;;;;;;;19.54;35.26;102136.69;5023299;28;20041;-81
2023/02/16 07:18:31;;;;;;;3.08;2.88;;;;;;;20.27;33.94;102128.72;5023608;28;20116;-80
2023/02/16 07:20:57;;;;;;;3.45;3.15;;;;;;;20.93;33.04;102130.94;5025555;28;20049;-80
2023/02/16 07:23:23;;;;;;;3.30;3.00;;;;;;;21.36;31.99;102130.06;5024858;28;20049;-80
2023/02/16 07:25:48;;;;;;;3.20;2.90;;;;;;;21.58;31.79;102141.94;5022489;28;20037;-80
2023/02/16 07:28:14;;;;;;;3.03;2.80;;;;;;;21.50;32.03;102137.41;5008991;28;20053;-80
2023/02/16 07:30:40;;;;;;;3.00;2.80;;;;;;;21.41;32.37;102133.91;5019529;28;20049;-80
2023/02/16 07:33:05;;;;;;;3.45;3.15;;;;;;;21.40;32.58;102144.66;5023768;28;20034;-80
2023/02/16 07:35:35;;;;;;;3.05;2.85;;;;;;;21.31;32.28;102143.78;5021536;28;20052;-80
2023/02/16 07:38:00;;;;;;;3.35;3.05;;;;;;;21.27;32.36;102146.91;5026394;28;20056;-80
2023/02/16 07:40:26;;;;;;;3.40;3.10;;;;;;;21.10;33.00;102154.72;5022960;28;20042;-80
2023/02/16 07:42:52;;;;;;;3.40;3.10;;;;;;;20.89;33.35;102154.25;5023660;28;20037;-80
2023/02/16 07:45:17;;;;;;;3.00;2.80;;;;;;;20.78;33.32;102157.97;4991348;28;20522;-81
2023/02/16 07:47:43;;;;;;;3.95;3.10;;;;;;;20.61;33.76;102169.41;5021636;28;20041;-80
2023/02/16 07:50:09;;;;;;;3.15;2.85;;;;;;;20.36;34.41;102163.06;5020692;28;20912;-81
2023/02/16 07:52:34;;;;;;;3.30;3.00;;;;;;;20.20;34.52;102170.81;5023358;28;20030;-80
2023/02/16 07:55:00;;;;;;;3.17;2.88;;;;;;;20.16;34.55;102165.00;5023405;28;20072;-80
2023/02/16 07:57:27;;;;;;;3.50;3.20;;;;;;;19.97;34.81;102159.00;5027752;28;20033;-80
2023/02/16 07:59:53;;;;;;;3.20;3.00;;;;;;;19.91;34.99;102166.53;5022436;28;20057;-80
2023/02/16 08:02:20;;;;;;;3.63;3.33;;;;;;;20.01;34.94;102173.59;5027555;28;20111;-81
2023/02/16 08:04:47;;;;;;;3.17;2.90;;;;;;;19.85;35.17;102166.31;5032298;28;20049;-82
2023/02/16 08:07:14;;;;;;;6.72;2.95;;;;;;;19.72;35.55;102171.91;5023795;28;20048;-82
2023/02/16 08:09:40;;;;;;;3.25;3.03;;;;;;;19.88;35.38;102166.84;5025314;28;20053;-85
2023/02/16 08:12:11;;;;;;;3.53;3.22;;;;;;;19.78;35.55;102165.25;5025977;28;20464;-84
2023/02/16 08:14:37;;;;;;;3.30;3.00;;;;;;;19.78;35.65;102173.16;5023007;28;20487;-83
2023/02/16 08:17:04;;;;;;;3.22;2.92;;;;;;;19.87;35.46;102170.47;5020174;28;20045;-81
2023/02/16 08:19:30;;;;;;;3.00;2.80;;;;;;;19.84;35.45;102183.97;5021427;28;20052;-81
2023/02/16 08:21:56;;;;;;;3.33;3.05;;;;;;;19.86;35.35;102179.38;5017506;28;20038;-84
2023/02/16 08:24:23;;;;;;;3.10;2.85;;;;;;;19.94;35.21;102176.00;5022483;28;21700;-81
2023/02/16 08:26:52;;;;;;;3.10;2.90;;;;;;;19.88;35.27;102171.28;5019834;28;20044;-81
2023/02/16 08:29:18;;;;;;;3.20;3.00;;;;;;;19.87;35.58;102180.19;5023174;28;20503;-82
2023/02/16 08:31:46;;;;;;;3.40;3.10;;;;;;;19.85;35.38;102183.00;5024605;28;20071;-83
2023/02/16 08:34:13;;;;;;;2.92;2.72;;;;;;;19.84;35.34;102175.22;5024648;28;20107;-82
2023/02/16 08:36:40;;;;;;;3.33;3.13;;;;;;;19.85;35.27;102180.34;5025762;28;20576;-83
2023/02/16 08:39:10;;;;;;;3.60;3.30;;;;;;;19.87;35.34;102188.97;5020444;28;20426;-83
2023/02/16 08:41:36;;;;;;;;;;;;;;;19.86;35.24;102189.09;5021725;28;20037;-83
2023/02/16 08:44:04;;;;;;;3.63;3.33;;;;;;;19.92;35.21;102192.00;5013829;28;19921;-83
2023/02/16 08:46:32;;;;;;;3.60;3.30;;;;;;;19.88;35.19;102181.84;5018974;28;20105;-84
2023/02/16 08:48:59;;;;;;;2.97;2.78;;;;;;;19.85;35.32;102182.16;5018088;28;20033;-82
2023/02/16 08:51:30;;;;;;;3.50;3.20;;;;;;;19.87;35.25;102190.78;5022378;28;20075;-82
2023/02/16 08:53:59;;;;;;;3.38;3.08;;;;;;;19.80;35.27;102193.19;5018407;28;20404;-83
2023/02/16 08:56:25;;;;;;;3.25;2.95;;;;;;;19.83;35.42;102187.59;5019118;28;20048;-83
2023/02/16 08:58:51;;;;;;;3.30;3.00;;;;;;;20.83;33.70;102180.53;5019800;28;20042;-83
2023/02/16 09:01:17;;;;;;;3.50;3.20;;;;;;;21.31;32.67;102175.56;5020853;28;20049;-83
2023/02/16 09:03:44;;;;;;;3.13;2.83;;;;;;;21.33;32.71;102170.94;5021083;28;20467;-83
2023/02/16 09:06:12;;;;;;;3.10;2.90;;;;;;;21.26;32.58;102175.22;5018024;28;20050;-83
2023/02/16 09:08:38;;;;;;;3.25;3.00;;;;;;;21.33;32.55;102175.41;5020465;28;20052;-83
2023/02/16 09:11:12;;;;;;;2.97;2.67;;;;;;;21.18;33.04;102183.06;5019441;28;20041;-83
2023/02/16 09:13:39;;;;;;;3.45;3.15;;;;;;;21.14;32.80;102179.09;5023586;28;20026;-83
2023/02/16 09:16:08;;;;;;;4.00;3.60;;;;;;;20.50;34.38;102186.38;5002865;28;20040;-83
2023/02/16 09:18:35;;;;;;;3.40;3.10;;;;;;;20.79;33.94;102188.75;5020571;28;20589;-83
2023/02/16 09:21:05;;;;;;;3.33;3.03;;;;;;;20.65;34.12;102186.69;5025078;28;20033;-83
2023/02/16 09:23:34;;;;;;;3.50;3.20;;;;;;;20.37;34.53;102182.41;5014095;28;20029;-84
2023/02/16 09:26:01;;;;;;;3.00;2.75;;;;;;;20.19;34.88;102190.31;5019208;28;20045;-84
2023/02/16 09:28:28;;;;;;;3.20;3.00;;;;;;;20.06;35.20;102189.84;5015425;28;20103;-84
2023/02/16 09:30:54;;;;;;;3.35;3.05;;;;;;;20.02;35.06;102188.47;5009125;28;22348;-84
2023/02/16 09:33:20;;;;;;;3.30;3.00;;;;;;;19.84;35.60;102191.91;5016716;28;20038;-84
2023/02/16 09:35:46;;;;;;;3.00;2.78;;;;;;;19.81;35.49;102186.91;5019615;28;20041;-84
2023/02/16 09:38:15;;;;;;;3.00;2.80;;;;;;;19.79;35.67;102202.09;5017914;28;20057;-82
2023/02/16 09:40:41;;;;;;;3.50;2.97;;;;;;;19.75;35.67;102206.00;5020410;28;20136;-82
2023/02/16 09:43:34;;;;;;;3.58;3.17;;;;;;;19.70;35.81;102197.66;5015937;28;20566;-83
2023/02/16 09:46:01;;;;;;;3.30;3.00;;;;;;;19.76;35.63;102199.75;5000411;28;20122;-83
2023/02/16 09:48:35;;;;;;;3.40;3.10;;;;;;;19.82;35.58;102204.44;5015473;28;20056;-80
2023/02/16 09:51:03;;;;;;;3.05;2.85;;;;;;;19.98;35.37;102206.44;5018244;28;20551;-80
2023/02/16 09:53:35;;;;;;;3.15;2.95;;;;;;;19.90;35.66;102212.47;5014190;28;20038;-80
2023/02/16 09:56:15;;;;;;;3.55;3.25;;;;;;;19.91;35.54;102203.53;5018425;28;20048;-80
2023/02/16 09:58:41;;;;;;;3.35;3.05;;;;;;;19.96;35.42;102211.06;5016422;28;20529;-80
2023/02/16 10:01:30;;;;;;;3.20;3.00;;;;;;;19.91;35.49;102208.00;5017970;28;20030;-80
2023/02/16 10:04:07;;;;;;;3.47;3.17;;;;;;;19.98;35.30;102217.03;5012382;28;20033;-80
2023/02/16 10:07:10;;;;;;;3.00;2.80;;;;;;;19.99;35.32;102212.56;5017658;28;20029;-80
2023/02/16 10:09:38;;;;;;;3.22;2.92;;;;;;;20.06;35.16;102217.09;4997552;28;20495;-82
2023/02/16 10:12:10;;;;;;;3.10;2.90;;;;;;;19.98;35.19;102208.25;5014899;28;21111;-79
2023/02/16 10:14:40;;;;;;;3.10;2.90;;;;;;;19.97;35.26;102218.00;5014070;28;20794;-82
2023/02/16 10:17:15;;;;;;;2.90;2.70;;;;;;;19.95;35.24;102214.69;5011843;28;20072;-82
2023/02/16 10:19:50;;;;;;;3.17;2.88;;;;;;;19.94;35.20;102207.72;5020593;28;20045;-81
2023/02/16 10:22:35;;;;;;;2.72;2.53;;;;;;;20.02;35.15;102218.38;5017073;28;20041;-81
2023/02/16 10:25:07;;;;;;;2.80;2.60;;;;;;;19.99;35.10;102210.75;5033822;28;20041;-82
2023/02/16 10:27:39;;;;;;;3.10;2.80;;;;;;;20.01;35.16;102203.50;5012700;28;20136;-79
2023/02/16 10:30:20;;;;;;;3.00;2.80;;;;;;;20.10;35.12;102199.13;5019592;28;20042;-82
2023/02/16 10:33:03;;;;;;;2.90;2.70;;;;;;;20.07;35.01;102196.78;5001953;28;20610;-82
2023/02/16 10:35:44;;;;;;;2.85;2.65;;;;;;;20.03;34.86;102195.41;5030235;28;20467;-79
2023/02/16 10:38:43;;;;;;;2.97;2.78;;;;;;;20.04;35.07;102195.28;5015074;28;20496;-82
2023/02/16 10:41:31;;;;;;;3.10;2.85;;;;;;;20.09;34.97;102190.38;5014814;28;20119;-81
2023/02/16 10:44:13;;;;;;;3.30;3.00;;;;;;;20.13;34.86;102196.22;5013969;28;20034;-81
2023/02/16 10:46:46;;;;;;;4.18;2.85;;;;;;;20.03;35.14;102187.50;5013738;28;20159;-81
2023/02/16 10:49:14;;;;;;;3.60;3.05;;;;;;;20.05;35.03;102193.47;5015079;28;20046;-80
2023/02/16 10:51:46;;;;;;;3.10;2.80;;;;;;;20.11;35.09;102200.81;5016638;28;20037;-79
2023/02/16 10:54:19;;;;;;;3.17;2.88;;;;;;;20.09;35.07;102206.22;5014775;28;20025;-79
2023/02/16 10:56:49;;;;;;;4.63;3.30;;;;;;;20.09;35.17;102215.97;5017554;28;21158;-82
2023/02/16 10:59:19;;;;;;;3.53;3.22;;;;;;;20.08;35.19;102214.31;5017171;28;20046;-81
2023/02/16 11:01:56;;;;;;;2.63;2.42;;;;;;;20.05;35.19;102225.19;5017728;28;20053;-81
2023/02/16 11:04:40;;;;;;;2.90;2.70;;;;;;;20.02;35.30;102236.06;5020645;28;20058;-82
2023/02/16 11:07:11;;;;;;;3.40;3.00;;;;;;;19.98;35.29;102230.25;5018724;28;22110;-82
2023/02/16 11:09:39;;;;;;;3.30;3.00;;;;;;;19.92;35.34;102225.53;5016902;28;21083;-80
2023/02/16 11:12:27;;;;;;;2.88;2.67;;;;;;;19.85;35.59;102214.72;5020596;28;20374;-82
2023/02/16 11:15:12;;;;;;;3.25;3.00;;;;;;;19.99;35.18;102210.75;5002609;28;20481;-82
2023/02/16 11:18:03;;;;;;;3.17;2.90;;;;;;;19.97;35.32;102212.72;5017294;28;20026;-82
2023/02/16 11:20:56;;;;;;;3.10;2.80;;;;;;;20.00;35.24;102214.22;5019875;28;20087;-82
2023/02/16 11:23:24;;;;;;;3.10;2.90;;;;;;;20.03;35.15;102222.69;5013057;28;20364;-82
2023/02/16 11:26:19;;;;;;;3.08;2.85;;;;;;;20.00;35.35;102217.72;5016231;28;20041;-83
2023/02/16 11:28:47;;;;;;;3.38;3.08;;;;;;;20.11;35.12;102220.16;5004155;28;20056;-81
2023/02/16 11:31:17;;;;;;;2.90;2.70;;;;;;;20.00;35.35;102228.28;5011254;28;20038;-81
2023/02/16 11:33:53;;;;;;;;;;;;;;;20.01;35.32;102216.72;5017147;28;20029;-81
2023/02/16 11:36:28;;;;;;;3.40;3.10;;;;;;;19.97;35.26;102211.88;5017593;28;19924;-81
2023/02/16 11:38:59;;;;;;;3.25;2.85;;;;;;;20.03;35.36;102211.28;5014378;28;20037;-81
2023/02/16 11:41:26;;;;;;;3.33;2.70;;;;;;;20.55;34.40;102206.25;5017598;28;20041;-81
2023/02/16 11:43:53;;;;;;;3.00;2.80;;;;;;;21.11;33.23;102197.94;5018893;28;20071;-81
2023/02/16 11:46:20;;;;;;;2.95;2.75;;;;;;;21.19;33.15;102194.53;5019404;28;20041;-81
2023/02/16 11:48:46;;;;;;;2.95;2.75;;;;;;;21.12;33.38;102207.53;5018593;28;20033;-81
2023/02/16 11:51:14;;;;;;;3.38;3.00;;;;;;;21.05;33.43;102186.16;5020631;28;20053;-81
2023/02/16 11:53:42;;;;;;;3.20;2.90;;;;;;;20.85;33.68;102197.09;5020647;28;20045;-81
2023/02/16 11:56:22;;;;;;;2.90;2.70;;;;;;;20.68;34.22;102193.47;5025055;28;20048;-81
2023/02/16 11:59:06;;;;;;;2.85;2.65;;;;;;;20.46;34.52;102192.94;5026141;28;20574;-82
2023/02/16 12:01:40;;;;;;;3.17;2.88;;;;;;;20.27;34.83;102171.88;5024554;28;20408;-81
2023/02/16 12:04:33;;;;;;;2.55;2.35;;;;;;;20.28;34.88;102178.00;5018328;28;20041;-81
2023/02/16 12:07:14;;;;;;;2.90;2.70;;;;;;;20.33;34.78;102170.47;5028298;28;20041;-81
2023/02/16 12:09:55;;;;;;;3.33;3.03;;;;;;;20.27;35.04;102168.41;5020485;28;20451;-81
2023/02/16 12:12:31;;;;;;;3.20;2.90;;;;;;;20.18;35.09;102159.56;5023264;28;20025;-79
2023/02/16 12:15:15;;;;;;;2.80;2.60;;;;;;;20.14;35.06;102156.38;5018938;28;20040;-79
2023/02/16 12:18:00;;;;;;;3.30;3.00;;;;;;;20.15;35.08;102152.75;5026614;28;20037;-80
2023/02/16 12:20:53;;;;;;;2.78;2.58;;;;;;;20.19;35.04;102138.25;5018696;28;20040;-79
2023/02/16 12:23:46;;;;;;;3.13;2.90;;;;;;;20.12;35.18;102136.38;5018634;28;20045;-80